createdAt,value
2019-03-12T00:01:40.508Z,4.80
2019-03-12T00:04:09.250Z,4.70
2019-03-12T00:06:37.935Z,4.60
2019-03-12T00:09:07.038Z,4.60
2019-03-12T00:11:35.786Z,4.50
2019-03-12T00:14:04.613Z,4.50
2019-03-12T00:16:33.677Z,4.40
2019-03-12T00:19:02.433Z,4.40
2019-03-12T00:21:31.231Z,4.30
2019-03-12T00:23:59.939Z,4.30
2019-03-12T00:26:28.730Z,4.30
2019-03-12T00:28:57.410Z,4.20
2019-03-12T00:31:26.151Z,4.20
2019-03-12T00:33:54.843Z,4.10
2019-03-12T00:36:23.554Z,4.10
2019-03-12T00:38:52.343Z,4.10
2019-03-12T00:41:21.026Z,4.00
2019-03-12T00:43:49.740Z,4.00
2019-03-12T00:46:18.560Z,3.90
2019-03-12T00:48:47.329Z,3.90
2019-03-12T00:51:16.078Z,3.90
2019-03-12T00:53:44.893Z,3.90
2019-03-12T00:56:13.609Z,3.90
2019-03-12T00:58:42.327Z,3.80
2019-03-12T01:01:11.114Z,3.80
2019-03-12T01:03:39.783Z,3.70
2019-03-12T01:06:08.493Z,3.70
2019-03-12T01:08:37.180Z,3.70
2019-03-12T01:11:05.917Z,3.60
2019-03-12T01:13:34.685Z,3.60
2019-03-12T01:16:03.363Z,3.60
2019-03-12T01:18:32.087Z,3.60
2019-03-12T01:21:00.770Z,3.60
2019-03-12T01:23:29.482Z,3.60
2019-03-12T01:25:58.209Z,3.60
2019-03-12T01:28:26.911Z,3.60
2019-03-12T01:30:55.674Z,3.60
2019-03-12T01:33:24.354Z,3.60
2019-03-12T01:35:53.073Z,3.60
2019-03-12T01:38:21.807Z,3.60
2019-03-12T01:40:50.519Z,3.50
2019-03-12T01:43:19.225Z,3.50
2019-03-12T01:45:47.930Z,3.50
2019-03-12T01:48:16.640Z,3.40
2019-03-12T01:50:45.465Z,3.40
2019-03-12T01:53:14.150Z,3.40
2019-03-12T01:55:42.933Z,3.40
2019-03-12T01:58:14.515Z,3.40
2019-03-12T02:00:42.236Z,3.40
2019-03-12T02:03:11.016Z,3.40
2019-03-12T02:05:39.838Z,3.30
2019-03-12T02:08:08.530Z,3.30
2019-03-12T02:10:37.238Z,3.30
2019-03-12T02:13:05.977Z,3.30
2019-03-12T02:15:34.698Z,3.20
2019-03-12T02:18:03.416Z,3.20
2019-03-12T02:20:32.132Z,3.20
2019-03-12T02:23:00.910Z,3.20
2019-03-12T02:25:29.643Z,3.10
2019-03-12T02:27:58.333Z,3.10
2019-03-12T02:30:27.101Z,3.20
2019-03-12T02:32:55.952Z,3.10
2019-03-12T02:35:24.636Z,3.10
2019-03-12T02:37:53.345Z,3.10
2019-03-12T02:40:22.163Z,3.10
2019-03-12T02:42:50.932Z,3.10
2019-03-12T02:45:19.693Z,3.10
2019-03-12T02:47:48.566Z,3.10
2019-03-12T02:50:17.340Z,3.00
2019-03-12T02:52:46.088Z,3.00
2019-03-12T02:55:14.778Z,3.00
2019-03-12T02:57:43.492Z,3.00
2019-03-12T03:00:15.667Z,3.00
2019-03-12T03:02:44.371Z,2.90
2019-03-12T03:05:13.250Z,2.90
2019-03-12T03:08:03.165Z,2.90
2019-03-12T03:10:31.988Z,2.90
2019-03-12T03:13:00.834Z,2.80
2019-03-12T03:15:34.266Z,2.80
2019-03-12T03:18:02.983Z,2.80
2019-03-12T03:20:31.747Z,2.80
2019-03-12T03:23:00.478Z,2.80
2019-03-12T03:25:29.204Z,2.80
2019-03-12T03:27:57.970Z,2.80
2019-03-12T03:30:26.712Z,2.80
2019-03-12T03:32:55.529Z,2.80
2019-03-12T03:35:24.281Z,2.80
2019-03-12T03:37:52.999Z,2.80
2019-03-12T03:40:21.707Z,2.80
2019-03-12T03:42:50.552Z,2.80
2019-03-12T03:45:19.296Z,2.80
2019-03-12T03:47:48.183Z,2.80
2019-03-12T03:50:16.970Z,2.80
2019-03-12T03:52:45.897Z,2.80
2019-03-12T03:55:15.633Z,2.80
2019-03-12T03:57:44.338Z,2.80
2019-03-12T04:00:17.975Z,2.70
2019-03-12T04:02:46.744Z,2.80
2019-03-12T04:05:15.557Z,2.80
2019-03-12T04:07:44.267Z,2.70
2019-03-12T04:10:13.102Z,2.70
2019-03-12T04:12:41.777Z,2.80
2019-03-12T04:15:11.027Z,2.80
2019-03-12T04:17:39.703Z,2.80
2019-03-12T04:20:08.655Z,2.80
2019-03-12T04:22:37.410Z,2.90
2019-03-12T04:25:06.227Z,2.90
2019-03-12T04:27:34.939Z,3.00
2019-03-12T04:30:03.880Z,3.00
2019-03-12T04:32:32.609Z,3.00
2019-03-12T04:35:01.435Z,3.00
2019-03-12T04:37:30.180Z,3.10
2019-03-12T04:39:58.884Z,3.10
2019-03-12T04:42:27.570Z,3.10
2019-03-12T04:44:56.317Z,3.10
2019-03-12T04:47:25.039Z,3.20
2019-03-12T04:49:53.757Z,3.30
2019-03-12T04:52:22.434Z,3.30
2019-03-12T04:54:51.172Z,3.30
2019-03-12T04:57:20.004Z,3.30
2019-03-12T04:59:48.806Z,3.30
2019-03-12T05:02:17.503Z,3.30
2019-03-12T05:04:46.224Z,3.30
2019-03-12T05:07:14.959Z,3.40
2019-03-12T05:09:43.648Z,3.40
2019-03-12T05:12:12.414Z,3.40
2019-03-12T05:14:43.494Z,3.40
2019-03-12T05:17:32.354Z,3.50
2019-03-12T05:20:01.230Z,3.50
2019-03-12T05:22:30.051Z,3.50
2019-03-12T05:24:58.751Z,3.50
2019-03-12T05:27:27.465Z,3.50
2019-03-12T05:29:56.154Z,3.60
2019-03-12T05:32:24.889Z,3.60
2019-03-12T05:34:53.632Z,3.60
2019-03-12T05:37:22.330Z,3.50
2019-03-12T05:39:51.154Z,3.50
2019-03-12T05:42:19.867Z,3.40
2019-03-12T05:44:48.870Z,3.40
2019-03-12T05:47:17.723Z,3.40
2019-03-12T05:49:46.447Z,3.40
2019-03-12T05:52:15.189Z,3.40
2019-03-12T05:54:43.898Z,3.40
2019-03-12T05:57:12.662Z,3.50
2019-03-12T05:59:41.400Z,3.50
2019-03-12T06:02:10.349Z,3.50
2019-03-12T06:04:39.240Z,3.50
2019-03-12T06:07:07.997Z,3.50
2019-03-12T06:09:36.708Z,3.50
2019-03-12T06:12:05.445Z,3.60
2019-03-12T06:14:34.259Z,3.60
2019-03-12T06:17:03.033Z,3.60
2019-03-12T06:19:31.853Z,3.70
2019-03-12T06:22:00.600Z,3.80
2019-03-12T06:24:29.467Z,3.80
2019-03-12T06:26:58.163Z,3.90
2019-03-12T06:29:26.830Z,3.90
2019-03-12T06:32:20.505Z,4.00
2019-03-12T06:35:03.471Z,4.00
2019-03-12T06:37:38.455Z,4.10
2019-03-12T06:40:20.136Z,4.10
2019-03-12T06:43:00.576Z,4.20
2019-03-12T06:45:54.655Z,4.20
2019-03-12T06:48:45.088Z,4.30
2019-03-12T06:51:32.931Z,4.30
2019-03-12T06:54:07.840Z,4.40
2019-03-12T06:56:46.211Z,4.40
2019-03-12T06:59:37.545Z,4.40
2019-03-12T07:02:22.267Z,4.50
2019-03-12T07:05:10.113Z,4.50
2019-03-12T07:07:55.311Z,4.50
2019-03-12T07:10:42.157Z,4.60
2019-03-12T07:13:22.535Z,4.70
2019-03-12T07:16:02.073Z,4.80
2019-03-12T07:18:43.634Z,4.90
2019-03-12T07:21:30.167Z,5.00
2019-03-12T07:24:16.665Z,5.10
2019-03-12T07:27:04.472Z,5.10
2019-03-12T07:30:04.233Z,5.20
2019-03-12T07:32:44.809Z,5.20
2019-03-12T07:35:31.670Z,5.20
2019-03-12T07:38:37.531Z,5.20
2019-03-12T07:41:24.509Z,5.30
2019-03-12T07:44:06.455Z,5.30
2019-03-12T07:46:45.775Z,5.30
2019-03-12T07:49:32.331Z,5.40
2019-03-12T07:52:09.566Z,5.50
2019-03-12T07:55:12.338Z,5.60
2019-03-12T07:57:51.362Z,5.60
2019-03-12T08:00:34.306Z,5.60
2019-03-12T08:03:14.477Z,5.60
2019-03-12T08:06:08.332Z,5.60
2019-03-12T08:08:55.520Z,5.60
2019-03-12T08:11:29.461Z,5.60
2019-03-12T08:14:27.068Z,5.60
2019-03-12T08:17:05.804Z,5.70
2019-03-12T08:19:51.828Z,5.80
2019-03-12T08:22:39.709Z,5.80
2019-03-12T08:25:44.056Z,5.80
2019-03-12T08:28:34.809Z,5.80
2019-03-12T08:31:21.355Z,5.80
2019-03-12T08:34:00.048Z,5.90
2019-03-12T08:36:37.975Z,6.00
2019-03-12T08:39:18.715Z,6.10
2019-03-12T08:42:05.201Z,6.20
2019-03-12T08:44:51.729Z,6.30
2019-03-12T08:47:45.635Z,6.30
2019-03-12T08:50:33.419Z,6.40
2019-03-12T08:53:15.358Z,6.40
2019-03-12T08:56:01.722Z,6.30
2019-03-12T08:59:01.606Z,6.40
2019-03-12T09:01:44.090Z,6.50
2019-03-12T09:04:32.090Z,6.60
2019-03-12T09:07:16.359Z,6.70
2019-03-12T09:10:10.885Z,6.80
2019-03-12T09:12:58.664Z,6.90
2019-03-12T09:16:01.435Z,7.00
2019-03-12T09:18:52.835Z,7.00
2019-03-12T09:21:42.466Z,7.10
2019-03-12T09:24:22.070Z,7.20
2019-03-12T09:27:10.034Z,7.30
2019-03-12T09:29:51.222Z,7.30
2019-03-12T09:32:37.756Z,7.40
2019-03-12T09:35:18.376Z,7.50
2019-03-12T09:38:24.278Z,7.50
2019-03-12T09:41:14.783Z,7.50
2019-03-12T09:44:02.647Z,7.50
2019-03-12T09:46:50.482Z,7.50
2019-03-12T09:49:33.155Z,7.50
2019-03-12T09:52:05.707Z,7.50
2019-03-12T09:54:56.742Z,7.60
2019-03-12T09:57:36.862Z,7.70
2019-03-12T10:00:37.806Z,7.70
2019-03-12T10:03:15.438Z,7.70
2019-03-12T10:06:00.370Z,7.70
2019-03-12T10:08:54.041Z,7.80
2019-03-12T10:12:00.107Z,7.80
2019-03-12T10:14:44.564Z,7.90
2019-03-12T10:17:25.530Z,7.90
2019-03-12T10:20:11.787Z,8.00
2019-03-12T10:22:56.969Z,8.00
2019-03-12T10:25:43.641Z,8.10
2019-03-12T10:28:43.410Z,8.10
2019-03-12T10:31:33.907Z,8.20
2019-03-12T10:34:29.911Z,8.10
2019-03-12T10:37:12.278Z,8.20
2019-03-12T10:40:23.278Z,8.30
2019-03-12T10:43:01.126Z,8.40
2019-03-12T10:45:34.359Z,8.30
2019-03-12T10:48:03.880Z,8.50
2019-03-12T10:50:32.681Z,8.40
2019-03-12T10:53:01.450Z,8.50
2019-03-12T10:55:30.235Z,8.70
2019-03-12T10:57:59.008Z,8.80
2019-03-12T11:00:27.916Z,8.80
2019-03-12T11:02:56.667Z,8.80
2019-03-12T11:05:25.463Z,9.00
2019-03-12T11:07:54.191Z,8.90
2019-03-12T11:10:22.948Z,9.00
2019-03-12T11:12:51.864Z,9.00
2019-03-12T11:15:20.642Z,9.00
2019-03-12T11:17:50.475Z,9.00
2019-03-12T11:20:19.359Z,9.20
2019-03-12T11:22:48.239Z,9.20
2019-03-12T11:25:26.502Z,9.30
2019-03-12T11:27:47.376Z,9.30
2019-03-12T11:30:16.222Z,9.50
2019-03-12T11:32:45.140Z,9.60
2019-03-12T11:35:13.995Z,9.70
2019-03-12T11:37:42.882Z,9.70
2019-03-12T11:40:14.705Z,9.80
2019-03-12T11:42:43.613Z,9.80
2019-03-12T11:45:16.459Z,9.80
2019-03-12T11:47:43.287Z,9.80
2019-03-12T11:50:14.501Z,9.80
2019-03-12T11:52:52.510Z,10.00
2019-03-12T11:55:14.312Z,10.00
2019-03-12T11:57:43.164Z,10.00
2019-03-12T12:00:19.106Z,10.20
2019-03-12T12:02:44.851Z,10.10
2019-03-12T12:05:13.703Z,10.30
2019-03-12T12:07:42.553Z,10.20
2019-03-12T12:10:12.285Z,10.30
2019-03-12T12:12:41.128Z,10.30
2019-03-12T12:15:10.914Z,10.20
2019-03-12T12:17:39.658Z,10.20
2019-03-12T12:20:08.942Z,10.20
2019-03-12T12:22:37.705Z,10.20
2019-03-12T12:25:07.324Z,10.20
2019-03-12T12:27:36.044Z,10.10
2019-03-12T12:30:05.842Z,10.20
2019-03-12T12:32:35.106Z,10.30
2019-03-12T12:35:04.149Z,10.20
2019-03-12T12:37:33.004Z,10.30
2019-03-12T12:40:01.975Z,10.20
2019-03-12T12:42:30.719Z,10.20
2019-03-12T12:44:59.562Z,10.10
2019-03-12T12:47:28.413Z,9.90
2019-03-12T12:49:57.307Z,10.00
2019-03-12T12:52:26.509Z,9.90
2019-03-12T12:54:55.707Z,9.90
2019-03-12T12:57:24.803Z,10.00
2019-03-12T12:59:53.725Z,10.00
2019-03-12T13:02:22.542Z,9.90
2019-03-12T13:04:51.294Z,10.00
2019-03-12T13:07:20.015Z,10.10
2019-03-12T13:09:49.897Z,10.20
2019-03-12T13:12:18.700Z,10.00
2019-03-12T13:14:47.451Z,9.90
2019-03-12T13:17:16.180Z,10.00
2019-03-12T13:19:45.057Z,10.10
2019-03-12T13:22:14.075Z,10.20
2019-03-12T13:24:42.857Z,10.30
2019-03-12T13:27:11.902Z,10.30
2019-03-12T13:29:41.087Z,10.30
2019-03-12T13:32:13.807Z,10.40
2019-03-12T13:34:40.775Z,10.30
2019-03-12T13:37:10.093Z,10.20
2019-03-12T13:39:38.954Z,10.20
2019-03-12T13:42:07.910Z,10.20
2019-03-12T13:44:36.977Z,10.30
2019-03-12T13:47:05.951Z,10.40
2019-03-12T13:49:34.741Z,10.40
2019-03-12T13:52:03.628Z,10.40
2019-03-12T13:54:32.361Z,10.50
2019-03-12T13:57:01.317Z,10.60
2019-03-12T13:59:30.132Z,10.70
2019-03-12T14:02:03.160Z,10.80
2019-03-12T14:04:31.914Z,10.70
2019-03-12T14:07:00.724Z,10.80
2019-03-12T14:09:29.744Z,10.80
2019-03-12T14:11:59.310Z,10.80
2019-03-12T14:14:28.610Z,10.70
2019-03-12T14:16:57.433Z,10.80
2019-03-12T14:19:26.186Z,10.70
2019-03-12T14:21:54.927Z,10.70
2019-03-12T14:24:23.599Z,10.60
2019-03-12T14:26:52.415Z,10.70
2019-03-12T14:29:21.139Z,10.60
2019-03-12T14:31:49.838Z,10.70
2019-03-12T14:34:18.605Z,10.60
2019-03-12T14:36:47.361Z,10.70
2019-03-12T14:39:16.054Z,10.70
2019-03-12T14:41:44.887Z,10.70
2019-03-12T14:44:13.587Z,10.70
2019-03-12T14:46:42.415Z,10.60
2019-03-12T14:49:11.207Z,10.50
2019-03-12T14:51:56.539Z,10.50
2019-03-12T14:54:25.378Z,10.50
2019-03-12T14:56:54.159Z,10.30
2019-03-12T14:59:23.118Z,10.30
2019-03-12T15:01:51.872Z,10.20
2019-03-12T15:04:20.658Z,10.20
2019-03-12T15:06:49.600Z,10.10
2019-03-12T15:09:18.488Z,10.10
2019-03-12T15:11:47.279Z,10.10
2019-03-12T15:14:16.129Z,10.10
2019-03-12T15:16:44.877Z,10.10
2019-03-12T15:19:13.686Z,10.00
2019-03-12T15:21:42.587Z,10.10
2019-03-12T15:24:11.409Z,10.10
2019-03-12T15:26:40.369Z,10.00
2019-03-12T15:29:09.158Z,10.00
2019-03-12T15:31:37.879Z,9.90
2019-03-12T15:34:06.681Z,10.00
2019-03-12T15:36:35.466Z,10.00
2019-03-12T15:39:05.248Z,10.00
2019-03-12T15:41:34.012Z,9.90
2019-03-12T15:44:03.173Z,9.90
2019-03-12T15:46:31.905Z,9.90
2019-03-12T15:49:00.613Z,9.90
2019-03-12T15:51:29.371Z,9.90
2019-03-12T15:53:58.194Z,9.90
2019-03-12T15:56:27.189Z,9.90
2019-03-12T15:58:55.924Z,9.90
2019-03-12T16:01:24.697Z,9.90
2019-03-12T16:03:53.450Z,9.90
2019-03-12T16:06:26.193Z,9.90
2019-03-12T16:08:53.780Z,9.90
2019-03-12T16:11:22.767Z,9.90
2019-03-12T16:13:51.545Z,9.80
2019-03-12T16:16:20.416Z,9.80
2019-03-12T16:18:49.509Z,9.70
2019-03-12T16:21:18.320Z,9.70
2019-03-12T16:23:47.167Z,9.70
2019-03-12T16:26:15.901Z,9.70
2019-03-12T16:28:44.609Z,9.70
2019-03-12T16:31:13.609Z,9.60
2019-03-12T16:33:42.280Z,9.70
2019-03-12T16:36:11.171Z,9.70
2019-03-12T16:38:39.896Z,9.70
2019-03-12T16:41:08.610Z,9.60
2019-03-12T16:43:37.319Z,9.60
2019-03-12T16:46:06.052Z,9.60
2019-03-12T16:48:34.932Z,9.70
2019-03-12T16:51:03.790Z,9.60
2019-03-12T16:53:32.487Z,9.60
2019-03-12T16:56:01.274Z,9.60
2019-03-12T16:58:30.028Z,9.60
2019-03-12T17:00:58.766Z,9.60
2019-03-12T17:03:27.504Z,9.60
2019-03-12T17:05:56.280Z,9.60
2019-03-12T17:08:25.059Z,9.60
2019-03-12T17:10:58.551Z,9.60
2019-03-12T17:13:24.399Z,9.60
2019-03-12T17:15:54.992Z,9.60
2019-03-12T17:18:23.657Z,9.60
2019-03-12T17:20:52.416Z,9.60
2019-03-12T17:23:21.136Z,9.60
2019-03-12T17:25:49.915Z,9.60
2019-03-12T17:28:18.654Z,9.60
2019-03-12T17:30:47.450Z,9.60
2019-03-12T17:33:16.219Z,9.60
2019-03-12T17:35:45.173Z,9.60
2019-03-12T17:38:14.227Z,9.60
2019-03-12T17:40:43.110Z,9.60
2019-03-12T17:43:11.895Z,9.60
2019-03-12T17:45:40.857Z,9.60
2019-03-12T17:48:09.718Z,9.60
2019-03-12T17:50:38.569Z,9.60
2019-03-12T17:53:07.395Z,9.60
2019-03-12T17:55:36.093Z,9.60
2019-03-12T17:58:04.809Z,9.60
2019-03-12T18:00:34.316Z,9.60
2019-03-12T18:03:03.407Z,9.60
2019-03-12T18:05:32.347Z,9.70
2019-03-12T18:08:01.051Z,9.60
2019-03-12T18:10:29.907Z,9.70
2019-03-12T18:12:59.007Z,9.70
2019-03-12T18:15:27.929Z,9.70
2019-03-12T18:17:56.649Z,9.80
2019-03-12T18:20:25.541Z,9.80
2019-03-12T18:22:54.504Z,9.80
2019-03-12T18:25:24.938Z,9.80
2019-03-12T18:27:53.877Z,9.80
2019-03-12T18:30:22.691Z,9.80
2019-03-12T18:32:51.571Z,9.80
2019-03-12T18:35:20.323Z,9.80
2019-03-12T18:37:49.191Z,9.90
2019-03-12T18:40:18.646Z,9.90
2019-03-12T18:42:47.398Z,9.90
2019-03-12T18:45:18.272Z,9.90
2019-03-12T18:47:47.123Z,9.90
2019-03-12T18:50:16.104Z,9.90
2019-03-12T18:52:44.829Z,9.90
2019-03-12T18:55:23.672Z,9.80
2019-03-12T18:57:52.493Z,9.90
2019-03-12T19:00:21.479Z,9.90
2019-03-12T19:02:50.418Z,9.90
2019-03-12T19:05:19.240Z,9.90
2019-03-12T19:07:47.994Z,9.90
2019-03-12T19:10:17.044Z,9.90
2019-03-12T19:12:45.976Z,9.90
2019-03-12T19:15:14.834Z,9.90
2019-03-12T19:17:43.851Z,9.90
2019-03-12T19:20:12.744Z,9.90
2019-03-12T19:22:41.520Z,9.90
2019-03-12T19:25:10.431Z,9.90
2019-03-12T19:27:39.373Z,9.90
2019-03-12T19:30:08.182Z,9.90
2019-03-12T19:32:45.511Z,9.90
2019-03-12T19:35:14.778Z,10.00
2019-03-12T19:37:43.549Z,10.00
2019-03-12T19:40:14.579Z,10.00
2019-03-12T19:42:43.634Z,10.00
2019-03-12T19:45:12.572Z,10.00
2019-03-12T19:47:41.366Z,10.00
2019-03-12T19:50:12.382Z,10.00
2019-03-12T19:52:41.648Z,10.00
2019-03-12T19:55:12.791Z,9.90
2019-03-12T19:57:41.629Z,9.80
2019-03-12T20:00:13.528Z,9.60
2019-03-12T20:02:42.428Z,9.60
2019-03-12T20:05:11.480Z,9.50
2019-03-12T20:07:40.676Z,9.50
2019-03-12T20:10:22.055Z,9.50
2019-03-12T20:13:13.111Z,9.50
2019-03-12T20:16:22.196Z,9.50
2019-03-12T20:19:28.227Z,9.50
2019-03-12T20:22:32.432Z,9.50
2019-03-12T20:25:44.813Z,9.50
2019-03-12T20:29:07.255Z,9.50
2019-03-12T20:32:26.502Z,9.40
2019-03-12T20:35:30.970Z,9.30
2019-03-12T20:38:49.197Z,9.20
2019-03-12T20:42:13.093Z,9.10
2019-03-12T20:45:06.677Z,8.80
2019-03-12T20:48:16.712Z,8.60
2019-03-12T20:51:33.427Z,8.40
2019-03-12T20:54:51.294Z,8.20
2019-03-12T20:58:10.025Z,8.20
2019-03-12T21:01:28.601Z,8.10
2019-03-12T21:04:32.348Z,8.00
2019-03-12T21:07:41.202Z,7.90
2019-03-12T21:10:47.342Z,8.00
2019-03-12T21:13:59.007Z,8.00
2019-03-12T21:17:00.102Z,8.00
2019-03-12T21:20:21.994Z,8.10
2019-03-12T21:23:09.783Z,8.20
2019-03-12T21:26:32.125Z,8.20
2019-03-12T21:29:24.628Z,8.20
2019-03-12T21:31:53.414Z,8.30
2019-03-12T21:34:22.251Z,8.30
2019-03-12T21:36:51.013Z,8.40
2019-03-12T21:39:19.815Z,8.40
2019-03-12T21:41:48.764Z,8.30
2019-03-12T21:44:17.559Z,8.10
2019-03-12T21:46:46.450Z,7.70
2019-03-12T21:49:15.341Z,7.30
2019-03-12T21:51:44.042Z,7.00
2019-03-12T21:54:13.170Z,6.70
2019-03-12T21:56:42.056Z,6.60
2019-03-12T21:59:10.939Z,6.50
2019-03-12T22:01:39.903Z,6.30
2019-03-12T22:04:08.783Z,6.10
2019-03-12T22:06:37.619Z,6.00
2019-03-12T22:09:06.721Z,5.90
2019-03-12T22:11:35.471Z,5.80
2019-03-12T22:14:04.329Z,5.70
2019-03-12T22:16:33.064Z,5.70
2019-03-12T22:19:01.852Z,5.60
2019-03-12T22:21:37.703Z,5.50
2019-03-12T22:24:08.238Z,5.40
2019-03-12T22:26:36.997Z,5.40
2019-03-12T22:29:05.773Z,5.30
2019-03-12T22:31:34.841Z,5.30
2019-03-12T22:34:03.526Z,5.20
2019-03-12T22:36:32.375Z,5.30
2019-03-12T22:39:01.238Z,5.30
2019-03-12T22:41:29.991Z,5.30
2019-03-12T22:43:58.722Z,5.30
2019-03-12T22:46:27.574Z,5.30
2019-03-12T22:48:56.497Z,5.30
2019-03-12T22:51:25.264Z,5.30
2019-03-12T22:53:54.057Z,5.30
2019-03-12T22:56:22.806Z,5.30
2019-03-12T22:58:51.524Z,5.30
2019-03-12T23:01:20.339Z,5.30
2019-03-12T23:03:49.392Z,5.30
2019-03-12T23:06:18.191Z,5.30
2019-03-12T23:08:47.198Z,5.30
2019-03-12T23:11:16.038Z,5.20
2019-03-12T23:13:44.887Z,5.20
2019-03-12T23:16:13.611Z,5.20
2019-03-12T23:18:42.398Z,5.20
2019-03-12T23:21:11.168Z,5.20
2019-03-12T23:23:39.935Z,5.10
2019-03-12T23:26:08.641Z,5.10
2019-03-12T23:28:37.588Z,5.10
2019-03-12T23:31:06.498Z,5.10
2019-03-12T23:33:35.293Z,5.10
2019-03-12T23:36:04.049Z,5.20
2019-03-12T23:38:32.779Z,5.20
2019-03-12T23:41:01.527Z,5.10
2019-03-12T23:43:30.422Z,5.10
2019-03-12T23:45:59.222Z,5.20
2019-03-12T23:48:28.118Z,5.20
2019-03-12T23:50:57.098Z,5.20
2019-03-12T23:53:25.858Z,5.20
2019-03-12T23:55:54.697Z,5.10
2019-03-12T23:58:23.784Z,5.10
